createdAt,value
2018-09-10T00:01:19.323Z,76.20
2018-09-10T00:03:48.199Z,76.10
2018-09-10T00:06:17.337Z,76.10
2018-09-10T00:08:47.898Z,75.60
2018-09-10T00:11:16.418Z,76.10
2018-09-10T00:13:45.201Z,76.00
2018-09-10T00:18:45.456Z,75.20
2018-09-10T00:21:15.502Z,75.50
2018-09-10T00:23:45.427Z,75.30
2018-09-10T00:26:15.125Z,75.50
2018-09-10T00:28:49.013Z,75.40
2018-09-10T00:31:22.442Z,75.40
2018-09-10T00:33:51.665Z,75.30
2018-09-10T00:36:21.375Z,76.00
2018-09-10T00:38:53.926Z,75.60
2018-09-10T00:41:23.385Z,75.60
2018-09-10T00:43:56.457Z,77.30
2018-09-10T00:46:25.217Z,76.10
2018-09-10T00:48:57.783Z,76.70
2018-09-10T00:51:26.152Z,76.60
2018-09-10T00:56:33.966Z,77.40
2018-09-10T00:59:08.757Z,76.80
2018-09-10T01:01:45.655Z,76.10
2018-09-10T01:04:16.911Z,75.50
2018-09-10T01:06:52.654Z,75.60
2018-09-10T01:09:22.601Z,75.60
2018-09-10T01:11:52.708Z,76.00
2018-09-10T01:14:25.967Z,76.60
2018-09-10T01:16:55.835Z,77.50
2018-09-10T01:22:00.978Z,77.30
2018-09-10T01:24:32.025Z,77.50
2018-09-10T01:27:06.662Z,78.30
2018-09-10T01:29:39.812Z,77.80
2018-09-10T01:34:52.030Z,76.20
2018-09-10T01:37:30.631Z,76.90
2018-09-10T01:45:03.646Z,78.00
2018-09-10T01:47:32.901Z,78.00
2018-09-10T01:50:04.469Z,78.60
2018-09-10T01:57:33.209Z,79.40
2018-09-10T02:00:02.104Z,79.00
2018-09-10T02:02:30.603Z,79.60
2018-09-10T02:04:59.417Z,79.60
2018-09-10T02:07:29.902Z,79.50
2018-09-10T02:17:37.805Z,77.20
2018-09-10T02:20:19.167Z,77.00
2018-09-10T02:22:49.657Z,76.80
2018-09-10T02:25:20.260Z,77.10
2018-09-10T02:27:53.011Z,77.00
2018-09-10T02:30:27.623Z,77.00
2018-09-10T02:32:59.125Z,77.10
2018-09-10T02:35:27.826Z,77.30
2018-09-10T02:37:56.488Z,80.00
2018-09-10T02:40:29.288Z,79.60
2018-09-10T02:43:01.396Z,78.50
2018-09-10T02:45:34.158Z,78.10
2018-09-10T02:48:04.197Z,77.40
2018-09-10T02:50:34.411Z,77.10
2018-09-10T02:53:05.324Z,76.90
2018-09-10T02:55:36.063Z,76.40
2018-09-10T02:58:10.102Z,75.90
2018-09-10T03:00:41.234Z,75.60
2018-09-10T03:03:14.287Z,75.10
2018-09-10T03:05:44.820Z,75.20
2018-09-10T03:08:15.503Z,75.50
2018-09-10T03:10:50.531Z,76.10
2018-09-10T03:13:21.787Z,76.20
2018-09-10T03:18:40.660Z,76.60
2018-09-10T03:21:16.904Z,76.50
2018-09-10T03:23:47.092Z,76.80
2018-09-10T03:29:03.004Z,77.10
2018-09-10T03:31:33.475Z,77.20
2018-09-10T03:34:02.341Z,77.40
2018-09-10T03:36:34.146Z,76.50
2018-09-10T03:39:03.880Z,75.70
2018-09-10T03:41:34.124Z,76.30
2018-09-10T03:44:03.751Z,75.90
2018-09-10T03:48:00.225Z,76.50
2018-09-10T03:52:59.687Z,76.40
2018-09-10T03:55:28.743Z,76.10
2018-09-10T03:58:00.053Z,77.20
2018-09-10T04:00:31.196Z,76.60
2018-09-10T04:03:03.980Z,76.30
2018-09-10T04:05:34.313Z,76.10
2018-09-10T04:08:03.838Z,75.90
2018-09-10T04:10:34.961Z,75.70
2018-09-10T04:13:03.422Z,75.90
2018-09-10T04:15:34.017Z,76.00
2018-09-10T04:18:03.724Z,75.80
2018-09-10T04:20:33.035Z,75.70
2018-09-10T04:23:03.810Z,75.70
2018-09-10T04:25:34.128Z,76.40
2018-09-10T04:28:03.912Z,75.90
2018-09-10T04:30:37.171Z,76.30
2018-09-10T04:33:06.642Z,76.10
2018-09-10T04:35:44.096Z,76.30
2018-09-10T04:38:12.895Z,77.00
2018-09-10T04:40:41.777Z,75.60
2018-09-10T04:43:12.807Z,75.60
2018-09-10T04:45:43.911Z,75.80
2018-09-10T04:48:13.593Z,75.90
2018-09-10T04:50:42.456Z,76.20
2018-09-10T04:53:13.894Z,75.60
2018-09-10T04:55:42.425Z,76.30
2018-09-10T04:58:11.100Z,77.10
2018-09-10T05:00:39.657Z,77.30
2018-09-10T05:03:08.159Z,78.10
2018-09-10T05:05:36.639Z,77.60
2018-09-10T05:08:05.185Z,77.10
2018-09-10T05:10:33.659Z,76.70
2018-09-10T05:17:58.716Z,77.30
2018-09-10T05:20:27.075Z,78.20
2018-09-10T05:22:55.410Z,78.60
2018-09-10T05:25:24.114Z,79.20
2018-09-10T05:27:52.662Z,79.20
2018-09-10T05:30:21.103Z,79.90
2018-09-10T05:32:49.581Z,80.60
2018-09-10T05:35:18.118Z,80.50
2018-09-10T05:37:46.635Z,80.30
2018-09-10T05:40:15.191Z,80.10
2018-09-10T05:42:43.842Z,80.70
2018-09-10T05:45:13.006Z,80.60
2018-09-10T05:47:41.656Z,81.40
2018-09-10T05:50:10.996Z,81.80
2018-09-10T05:52:39.677Z,82.10
2018-09-10T05:55:08.202Z,82.30
2018-09-10T05:57:36.968Z,83.20
2018-09-10T06:00:06.930Z,83.50
2018-09-10T06:02:35.516Z,83.60
2018-09-10T06:05:04.110Z,83.70
2018-09-10T06:07:32.601Z,84.20
2018-09-10T06:10:01.173Z,84.40
2018-09-10T06:12:29.751Z,84.30
2018-09-10T06:14:58.023Z,84.40
2018-09-10T06:19:55.124Z,84.00
2018-09-10T06:22:23.625Z,84.30
2018-09-10T06:24:52.666Z,84.30
2018-09-10T06:27:21.344Z,83.80
2018-09-10T06:29:49.923Z,85.40
2018-09-10T06:32:18.557Z,84.40
2018-09-10T06:34:47.535Z,85.70
2018-09-10T06:37:16.112Z,85.80
2018-09-10T06:39:44.773Z,86.70
2018-09-10T06:42:13.432Z,86.60
2018-09-10T06:44:42.033Z,86.90
2018-09-10T06:47:10.461Z,89.50
2018-09-10T06:49:38.906Z,90.20
2018-09-10T06:52:07.289Z,88.10
2018-09-10T06:54:35.762Z,88.30
2018-09-10T06:57:04.196Z,87.40
2018-09-10T06:59:32.647Z,87.80
2018-09-10T07:02:01.023Z,87.20
2018-09-10T07:04:29.470Z,84.20
2018-09-10T07:06:57.839Z,83.60
2018-09-10T07:09:26.423Z,80.60
2018-09-10T07:11:54.907Z,77.90
2018-09-10T07:24:17.013Z,76.10
2018-09-10T07:26:45.646Z,73.20
2018-09-10T07:29:14.106Z,74.50
2018-09-10T07:31:42.575Z,72.80
2018-09-10T07:34:11.229Z,72.60
2018-09-10T07:36:39.648Z,73.10
2018-09-10T07:39:09.962Z,70.80
2018-09-10T07:41:38.490Z,70.40
2018-09-10T07:44:07.692Z,69.20
2018-09-10T07:46:36.113Z,66.30
2018-09-10T07:49:04.597Z,69.10
2018-09-10T07:51:33.429Z,66.60
2018-09-10T07:54:01.849Z,68.50
2018-09-10T07:56:30.393Z,64.10
2018-09-10T07:58:58.838Z,63.90
2018-09-10T08:01:27.342Z,64.60
2018-09-10T08:03:55.856Z,61.10
2018-09-10T08:06:24.432Z,61.70
2018-09-10T08:08:53.239Z,63.00
2018-09-10T08:11:21.773Z,59.70
2018-09-10T08:13:50.345Z,60.40
2018-09-10T08:16:18.920Z,59.70
2018-09-10T08:18:47.372Z,59.20
2018-09-10T08:21:15.890Z,59.50
2018-09-10T08:26:12.621Z,58.30
2018-09-10T08:28:41.136Z,58.20
2018-09-10T08:31:09.687Z,58.80
2018-09-10T08:33:38.083Z,58.60
2018-09-10T08:36:06.508Z,56.70
2018-09-10T08:38:34.858Z,57.80
2018-09-10T08:41:03.379Z,57.60
2018-09-10T08:43:31.789Z,57.90
2018-09-10T08:46:00.185Z,58.10
2018-09-10T08:48:28.615Z,58.50
2018-09-10T08:50:57.171Z,57.50
2018-09-10T08:53:26.225Z,55.80
2018-09-10T08:55:55.005Z,55.90
2018-09-10T08:58:23.476Z,54.70
2018-09-10T09:00:52.048Z,54.70
2018-09-10T09:03:20.659Z,55.60
2018-09-10T09:05:49.343Z,54.10
2018-09-10T09:08:17.833Z,52.80
2018-09-10T09:10:46.645Z,55.00
2018-09-10T09:13:15.404Z,53.70
2018-09-10T09:15:43.877Z,53.00
2018-09-10T09:18:12.299Z,51.10
2018-09-10T09:20:40.774Z,51.50
2018-09-10T09:23:09.303Z,51.50
2018-09-10T09:25:37.747Z,52.20
2018-09-10T09:28:06.265Z,52.90
2018-09-10T09:30:34.843Z,51.60
2018-09-10T09:33:03.365Z,52.30
2018-09-10T09:35:37.200Z,51.20
2018-09-10T09:38:11.093Z,52.00
2018-09-10T09:40:45.143Z,48.30
2018-09-10T09:43:18.851Z,49.20
2018-09-10T09:45:52.716Z,48.90
2018-09-10T09:48:21.267Z,47.80
2018-09-10T09:50:49.663Z,47.40
2018-09-10T09:53:18.099Z,50.20
2018-09-10T09:55:46.587Z,48.40
2018-09-10T09:58:15.228Z,46.40
2018-09-10T10:01:00.897Z,46.70
2018-09-10T10:03:34.946Z,47.10
2018-09-10T10:06:03.451Z,47.40
2018-09-10T10:08:32.013Z,46.80
2018-09-10T10:11:00.508Z,47.70
2018-09-10T10:13:29.014Z,47.10
2018-09-10T10:15:57.718Z,45.60
2018-09-10T10:18:26.184Z,44.60
2018-09-10T10:20:54.677Z,45.10
2018-09-10T10:23:23.248Z,45.40
2018-09-10T10:25:52.071Z,44.60
2018-09-10T10:28:20.745Z,45.30
2018-09-10T10:30:49.193Z,45.00
2018-09-10T10:33:17.784Z,42.60
2018-09-10T10:38:14.381Z,40.90
2018-09-10T10:40:42.615Z,41.40
2018-09-10T10:43:11.221Z,42.10
2018-09-10T10:45:39.718Z,41.90
2018-09-10T10:48:08.234Z,41.70
2018-09-10T10:50:36.957Z,41.20
2018-09-10T10:53:05.421Z,39.60
2018-09-10T10:55:33.935Z,40.10
2018-09-10T10:58:02.323Z,39.60
2018-09-10T11:00:30.866Z,41.00
2018-09-10T11:02:59.285Z,41.80
2018-09-10T11:05:27.799Z,42.20
2018-09-10T11:07:56.422Z,42.20
2018-09-10T11:10:24.972Z,41.40
2018-09-10T11:12:53.354Z,41.90
2018-09-10T11:15:21.883Z,41.60
2018-09-10T11:17:50.451Z,42.10
2018-09-10T11:20:19.077Z,40.20
2018-09-10T11:22:50.525Z,41.70
2018-09-10T11:25:18.916Z,39.90
2018-09-10T11:27:47.421Z,41.60
2018-09-10T11:30:15.939Z,42.10
2018-09-10T11:32:44.507Z,42.10
2018-09-10T11:35:12.958Z,42.10
2018-09-10T11:37:41.558Z,39.50
2018-09-10T11:40:10.088Z,41.00
2018-09-10T11:42:38.589Z,40.80
2018-09-10T11:45:06.959Z,41.30
2018-09-10T11:47:35.510Z,40.20
2018-09-10T11:50:03.943Z,40.70
2018-09-10T11:52:32.424Z,42.20
2018-09-10T11:55:00.923Z,39.00
2018-09-10T11:57:29.370Z,39.50
2018-09-10T11:59:57.945Z,40.20
2018-09-10T12:02:26.561Z,40.40
2018-09-10T12:04:54.813Z,40.20
2018-09-10T12:07:23.276Z,40.80
2018-09-10T12:09:51.623Z,40.60
2018-09-10T12:12:20.017Z,40.90
2018-09-10T12:14:48.603Z,41.50
2018-09-10T12:17:17.122Z,39.50
2018-09-10T12:19:45.742Z,40.50
2018-09-10T12:22:14.212Z,40.90
2018-09-10T12:24:42.626Z,40.40
2018-09-10T12:27:11.219Z,40.80
2018-09-10T12:29:40.066Z,40.60
2018-09-10T12:32:08.684Z,43.90
2018-09-10T12:34:37.201Z,42.00
2018-09-10T12:37:05.682Z,42.40
2018-09-10T12:39:34.132Z,42.60
2018-09-10T12:46:59.094Z,44.90
2018-09-10T12:49:27.679Z,45.80
2018-09-10T12:51:56.195Z,46.70
2018-09-10T12:54:24.718Z,45.80
2018-09-10T12:56:53.399Z,44.80
2018-09-10T12:59:21.972Z,44.80
2018-09-10T13:01:50.532Z,45.10
2018-09-10T13:04:19.189Z,45.90
2018-09-10T13:06:47.720Z,44.10
2018-09-10T13:09:16.235Z,45.70
2018-09-10T13:11:44.843Z,43.60
2018-09-10T13:14:13.433Z,44.10
2018-09-10T13:16:42.147Z,44.00
2018-09-10T13:19:10.681Z,42.80
2018-09-10T13:21:39.288Z,43.30
2018-09-10T13:24:08.041Z,43.90
2018-09-10T13:26:36.570Z,44.40
2018-09-10T13:29:05.294Z,43.40
2018-09-10T13:31:33.857Z,44.90
2018-09-10T13:34:02.389Z,45.10
2018-09-10T13:36:30.896Z,44.30
2018-09-10T13:38:59.490Z,44.90
2018-09-10T13:41:28.059Z,44.00
2018-09-10T13:46:24.888Z,44.10
2018-09-10T13:51:21.663Z,44.10
2018-09-10T13:53:50.123Z,44.00
2018-09-10T13:56:18.712Z,44.60
2018-09-10T13:58:47.384Z,44.10
2018-09-10T14:01:15.961Z,42.80
2018-09-10T14:03:44.796Z,41.60
2018-09-10T14:06:13.979Z,42.40
2018-09-10T14:08:42.500Z,42.60
2018-09-10T14:11:10.944Z,43.40
2018-09-10T14:13:39.530Z,43.90
2018-09-10T14:16:08.077Z,42.40
2018-09-10T14:18:36.664Z,41.30
2018-09-10T14:21:05.241Z,41.30
2018-09-10T14:23:33.741Z,42.40
2018-09-10T14:26:02.432Z,43.10
2018-09-10T14:28:31.008Z,42.20
2018-09-10T14:30:59.690Z,42.10
2018-09-10T14:33:28.098Z,41.50
2018-09-10T14:35:56.626Z,42.00
2018-09-10T14:38:25.207Z,41.20
2018-09-10T14:40:53.792Z,39.60
2018-09-10T14:45:51.794Z,41.50
2018-09-10T14:53:17.099Z,41.00
2018-09-10T14:55:45.660Z,40.70
2018-09-10T14:58:14.193Z,41.20
2018-09-10T15:00:42.591Z,39.90
2018-09-10T15:03:11.064Z,40.60
2018-09-10T15:05:39.586Z,40.40
2018-09-10T15:08:08.086Z,40.60
2018-09-10T15:10:36.737Z,40.20
2018-09-10T15:13:05.336Z,40.80
2018-09-10T15:15:33.856Z,41.20
2018-09-10T15:18:02.555Z,39.90
2018-09-10T15:20:31.100Z,40.00
2018-09-10T15:22:59.584Z,40.40
2018-09-10T15:25:28.033Z,41.20
2018-09-10T15:27:56.579Z,40.10
2018-09-10T15:30:25.223Z,40.40
2018-09-10T15:32:53.805Z,40.80
2018-09-10T15:35:22.389Z,39.20
2018-09-10T15:37:50.868Z,39.90
2018-09-10T15:40:19.387Z,40.50
2018-09-10T15:42:47.826Z,40.40
2018-09-10T15:45:16.351Z,40.30
2018-09-10T15:47:44.885Z,40.30
2018-09-10T15:50:13.353Z,38.70
2018-09-10T15:52:42.007Z,39.20
2018-09-10T15:55:10.507Z,39.90
2018-09-10T15:57:39.056Z,41.50
2018-09-10T16:00:07.639Z,42.40
2018-09-10T16:02:36.172Z,41.90
2018-09-10T16:05:04.904Z,41.00
2018-09-10T16:07:33.488Z,42.70
2018-09-10T16:10:02.077Z,42.30
2018-09-10T16:12:30.665Z,42.80
2018-09-10T16:14:59.288Z,42.70
2018-09-10T16:17:27.888Z,42.40
2018-09-10T16:19:56.439Z,42.60
2018-09-10T16:22:24.964Z,42.60
2018-09-10T16:24:53.456Z,42.30
2018-09-10T16:27:21.991Z,41.80
2018-09-10T16:29:50.513Z,42.80
2018-09-10T16:32:19.186Z,44.70
2018-09-10T16:34:47.593Z,46.40
2018-09-10T16:37:16.134Z,44.50
2018-09-10T16:39:44.718Z,45.10
2018-09-10T16:42:13.235Z,44.90
2018-09-10T16:44:42.048Z,44.00
2018-09-10T16:47:10.800Z,44.40
2018-09-10T16:49:39.371Z,44.20
2018-09-10T16:52:07.952Z,44.70
2018-09-10T16:54:36.582Z,45.20
2018-09-10T16:57:05.957Z,47.50
2018-09-10T16:59:34.509Z,48.90
2018-09-10T17:02:03.101Z,50.30
2018-09-10T17:04:31.720Z,50.40
2018-09-10T17:07:00.229Z,51.30
2018-09-10T17:09:28.776Z,52.90
2018-09-10T17:11:57.366Z,53.30
2018-09-10T17:14:25.953Z,54.30
2018-09-10T17:16:54.431Z,54.90
2018-09-10T17:19:23.090Z,54.10
2018-09-10T17:21:51.638Z,54.80
2018-09-10T17:24:20.134Z,55.40
2018-09-10T17:26:48.730Z,55.10
2018-09-10T17:29:17.289Z,55.60
2018-09-10T17:31:45.944Z,56.40
2018-09-10T17:34:14.381Z,57.20
2018-09-10T17:39:11.269Z,58.40
2018-09-10T17:41:40.789Z,58.70
2018-09-10T17:44:09.349Z,58.50
2018-09-10T17:46:37.933Z,58.90
2018-09-10T17:56:30.895Z,60.70
2018-09-10T17:58:59.332Z,61.10
2018-09-10T18:01:27.846Z,61.30
2018-09-10T18:03:56.390Z,62.50
2018-09-10T18:06:24.980Z,63.30
2018-09-10T18:08:53.529Z,63.90
2018-09-10T18:11:22.051Z,63.70
2018-09-10T18:13:50.520Z,64.90
2018-09-10T18:16:19.040Z,64.90
2018-09-10T18:18:47.431Z,65.90
2018-09-10T18:21:15.969Z,66.20
2018-09-10T18:23:44.894Z,67.10
2018-09-10T18:26:13.442Z,66.90
2018-09-10T18:28:41.812Z,67.40
2018-09-10T18:31:10.461Z,68.20
2018-09-10T18:33:38.976Z,68.70
2018-09-10T18:37:10.725Z,68.60
2018-09-10T18:39:39.297Z,68.40
2018-09-10T18:42:07.910Z,69.20
2018-09-10T18:44:36.412Z,68.90
2018-09-10T18:47:04.842Z,68.50
2018-09-10T18:49:33.377Z,67.90
2018-09-10T18:52:01.873Z,68.70
2018-09-10T18:54:30.333Z,68.50
2018-09-10T18:56:58.869Z,69.30
2018-09-10T18:59:27.350Z,68.90
2018-09-10T19:01:56.000Z,69.00
2018-09-10T19:04:24.592Z,68.90
2018-09-10T19:06:53.252Z,69.00
2018-09-10T19:09:21.800Z,69.00
2018-09-10T19:11:50.309Z,69.20
2018-09-10T19:14:18.865Z,69.40
2018-09-10T19:16:47.421Z,69.40
2018-09-10T19:19:15.877Z,69.60
2018-09-10T19:24:12.645Z,69.90
2018-09-10T19:26:41.229Z,70.00
2018-09-10T19:29:09.724Z,70.90
2018-09-10T19:31:38.230Z,69.80
2018-09-10T19:34:06.833Z,69.80
2018-09-10T19:36:35.368Z,70.70
2018-09-10T19:39:04.566Z,70.00
2018-09-10T19:41:33.311Z,70.00
2018-09-10T19:44:02.079Z,70.90
2018-09-10T19:46:30.439Z,70.70
2018-09-10T19:48:59.143Z,70.60
2018-09-10T19:51:27.740Z,70.30
2018-09-10T19:53:56.293Z,70.50
2018-09-10T19:56:24.768Z,69.30
2018-09-10T19:58:53.255Z,70.20
2018-09-10T20:01:21.767Z,70.20
2018-09-10T20:03:50.363Z,69.50
2018-09-10T20:06:18.887Z,70.10
2018-09-10T20:08:47.380Z,70.20
2018-09-10T20:11:15.935Z,70.10
2018-09-10T20:13:44.387Z,68.90
2018-09-10T20:16:12.903Z,68.90
2018-09-10T20:21:09.737Z,69.80
2018-09-10T20:23:38.211Z,69.50
2018-09-10T20:26:07.298Z,70.30
2018-09-10T20:28:35.821Z,70.10
2018-09-10T20:31:04.685Z,70.40
2018-09-10T20:33:37.428Z,70.10
2018-09-10T20:36:06.012Z,70.30
2018-09-10T20:38:34.596Z,70.00
2018-09-10T20:41:03.164Z,69.80
2018-09-10T20:43:31.640Z,70.20
2018-09-10T20:46:00.122Z,70.00
2018-09-10T20:48:28.641Z,69.90
2018-09-10T20:51:00.049Z,70.80
2018-09-10T20:53:28.623Z,70.50
2018-09-10T20:55:56.995Z,72.50
2018-09-10T20:58:25.496Z,71.70
2018-09-10T21:00:53.905Z,71.90
2018-09-10T21:03:22.257Z,71.50
2018-09-10T21:05:50.711Z,71.40
2018-09-10T21:08:19.114Z,71.10
2018-09-10T21:10:47.617Z,71.70
2018-09-10T21:13:16.014Z,71.50
2018-09-10T21:15:44.508Z,72.20
2018-09-10T21:18:13.127Z,71.80
2018-09-10T21:20:42.638Z,71.80
2018-09-10T21:23:11.429Z,71.80
2018-09-10T21:25:41.048Z,71.50
2018-09-10T21:33:06.384Z,73.90
2018-09-10T21:35:35.617Z,74.60
2018-09-10T21:40:32.673Z,73.90
2018-09-10T21:52:58.812Z,72.80
2018-09-10T22:00:26.685Z,72.40
2018-09-10T22:02:59.087Z,72.30
2018-09-10T22:10:24.074Z,71.50
2018-09-10T22:12:52.754Z,72.00
2018-09-10T22:15:21.421Z,72.30
2018-09-10T22:17:49.838Z,72.20
2018-09-10T22:22:48.068Z,73.20
2018-09-10T22:27:44.874Z,72.30
2018-09-10T22:40:09.280Z,75.30
2018-09-10T22:42:37.787Z,75.30
2018-09-10T22:50:04.934Z,75.60
2018-09-10T22:52:33.455Z,75.10
2018-09-10T22:59:58.424Z,74.90
2018-09-10T23:02:27.046Z,74.60
2018-09-10T23:04:55.520Z,74.70
2018-09-10T23:14:49.319Z,74.60
2018-09-10T23:17:17.838Z,74.30
2018-09-10T23:22:14.668Z,74.80
2018-09-10T23:24:43.220Z,74.80
2018-09-10T23:27:11.743Z,75.60
2018-09-10T23:39:35.137Z,75.60
2018-09-10T23:42:03.718Z,75.60
2018-09-10T23:44:32.497Z,75.60
2018-09-10T23:54:28.674Z,74.60
2018-09-10T23:57:00.435Z,74.60
2018-09-10T23:59:30.589Z,74.70
